Time;durP1;ratioP1;P1;durP2;ratioP2;P2;SDS_P1;SDS_P2;PMS_P1;PMS_P2;Temp;Humidity;BMP_temperature;BMP_pressure;BME280_temperature;BME280_humidity;BME280_pressure;Samples;Min_cycle;Max_cycle;Signal;HPM_P1;HPM_P2
2023/03/09 00:01:56;;;;;;;27.35;15.65;;;3.30;99.90;;;;;;5091210;28;20035;-75
2023/03/09 00:04:22;;;;;;;33.63;16.17;;;3.20;99.90;;;;;;5091133;28;20079;-75
2023/03/09 00:06:49;;;;;;;24.98;14.20;;;3.30;99.90;;;;;;5091018;28;20024;-75
2023/03/09 00:09:15;;;;;;;27.30;13.38;;;3.20;99.90;;;;;;5091877;28;20032;-76
2023/03/09 00:11:47;;;;;;;29.98;15.50;;;3.20;99.90;;;;;;5092065;28;20040;-76
2023/03/09 00:14:13;;;;;;;24.92;13.90;;;3.20;99.90;;;;;;5092068;28;20028;-76
2023/03/09 00:16:39;;;;;;;28.80;15.60;;;3.20;99.90;;;;;;5091655;28;20136;-77
2023/03/09 00:19:05;;;;;;;28.40;14.75;;;3.30;99.90;;;;;;5091470;28;20744;-75
2023/03/09 00:21:34;;;;;;;25.65;14.25;;;3.20;99.90;;;;;;5092068;28;20077;-76
2023/03/09 00:24:13;;;;;;;25.70;12.57;;;3.20;99.90;;;;;;5090990;28;20102;-76
2023/03/09 00:26:40;;;;;;;25.27;14.52;;;3.20;99.90;;;;;;5091800;28;20437;-75
2023/03/09 00:29:12;;;;;;;29.88;15.82;;;3.20;99.90;;;;;;5090996;28;20023;-77
2023/03/09 00:31:38;;;;;;;22.38;14.65;;;3.20;99.90;;;;;;5090466;28;20172;-76
2023/03/09 00:34:05;;;;;;;27.00;14.85;;;3.20;99.90;;;;;;5091348;28;20211;-76
2023/03/09 00:36:31;;;;;;;25.23;13.50;;;3.20;99.90;;;;;;5092351;28;20034;-76
2023/03/09 00:38:58;;;;;;;21.70;12.52;;;3.20;99.90;;;;;;5091200;28;20095;-76
2023/03/09 00:41:27;;;;;;;21.80;11.95;;;3.20;99.90;;;;;;5091937;28;20020;-76
2023/03/09 00:43:53;;;;;;;20.25;10.57;;;3.20;99.90;;;;;;5092399;28;20124;-76
2023/03/09 00:46:19;;;;;;;14.60;8.27;;;3.20;99.90;;;;;;5091828;28;20043;-76
2023/03/09 00:48:45;;;;;;;19.02;11.32;;;3.20;99.90;;;;;;5091407;28;20032;-79
2023/03/09 00:51:12;;;;;;;16.25;11.13;;;3.20;99.90;;;;;;5090475;28;20411;-75
2023/03/09 00:53:38;;;;;;;16.55;11.40;;;3.30;99.90;;;;;;5091415;28;20028;-75
2023/03/09 00:56:12;;;;;;;15.05;8.77;;;3.30;99.90;;;;;;5089082;28;20028;-75
2023/03/09 00:58:38;;;;;;;14.13;9.88;;;3.20;99.90;;;;;;5091243;28;20380;-76
2023/03/09 01:01:12;;;;;;;17.63;11.38;;;3.20;99.90;;;;;;5088769;28;20067;-76
2023/03/09 01:03:38;;;;;;;20.67;11.45;;;3.20;99.90;;;;;;5091566;28;20016;-76
2023/03/09 01:06:05;;;;;;;19.10;10.75;;;3.20;99.90;;;;;;5091214;28;20435;-76
2023/03/09 01:08:32;;;;;;;22.20;10.32;;;3.20;99.90;;;;;;5090730;28;20099;-77
2023/03/09 01:10:58;;;;;;;17.70;10.35;;;3.20;99.90;;;;;;5090373;28;20026;-75
2023/03/09 01:13:24;;;;;;;17.05;11.75;;;3.30;99.90;;;;;;5091149;28;20039;-77
2023/03/09 01:15:49;;;;;;;18.88;12.07;;;3.20;99.90;;;;;;5090487;28;20068;-77
2023/03/09 01:18:15;;;;;;;15.75;10.77;;;3.30;99.90;;;;;;5090806;28;20095;-76
2023/03/09 01:20:41;;;;;;;14.85;10.15;;;3.20;99.90;;;;;;5090912;28;20032;-76
2023/03/09 01:23:07;;;;;;;18.27;11.27;;;3.20;99.90;;;;;;5089859;28;20028;-75
2023/03/09 01:25:32;;;;;;;19.58;12.52;;;3.20;99.90;;;;;;5090768;28;20066;-76
2023/03/09 01:27:58;;;;;;;19.02;12.98;;;3.20;99.90;;;;;;5089694;28;20092;-76
2023/03/09 01:30:24;;;;;;;22.48;12.63;;;3.20;99.90;;;;;;5090510;28;20031;-76
2023/03/09 01:32:49;;;;;;;24.50;14.27;;;3.30;99.90;;;;;;5089853;28;20039;-78
2023/03/09 01:35:16;;;;;;;22.23;12.40;;;3.30;99.90;;;;;;5090281;28;20419;-76
2023/03/09 01:37:41;;;;;;;20.38;13.23;;;3.30;99.90;;;;;;5090402;28;20154;-76
2023/03/09 01:40:10;;;;;;;20.67;12.82;;;3.30;99.90;;;;;;5089766;28;20115;-76
2023/03/09 01:42:35;;;;;;;18.00;11.95;;;3.30;99.90;;;;;;5090594;28;20028;-76
2023/03/09 01:45:06;;;;;;;22.77;13.32;;;3.30;99.90;;;;;;5090287;28;20051;-76
2023/03/09 01:47:32;;;;;;;20.02;10.95;;;3.40;99.90;;;;;;5090417;28;20085;-76
2023/03/09 01:50:00;;;;;;;16.95;11.38;;;3.40;99.90;;;;;;5089757;28;20032;-76
2023/03/09 01:52:32;;;;;;;11.82;7.72;;;3.50;99.90;;;;;;5090361;28;20036;-75
2023/03/09 01:55:02;;;;;;;15.93;10.57;;;3.50;99.90;;;;;;5089600;28;20040;-76
2023/03/09 01:57:31;;;;;;;16.85;10.23;;;3.60;99.90;;;;;;5090407;28;20024;-76
2023/03/09 02:00:13;;;;;;;13.70;10.20;;;3.60;99.90;;;;;;5089995;28;20028;-76
2023/03/09 02:02:40;;;;;;;17.63;9.88;;;3.70;99.90;;;;;;5091073;28;20028;-76
2023/03/09 02:05:12;;;;;;;14.88;9.88;;;3.70;99.90;;;;;;5093684;28;20427;-75
2023/03/09 02:07:42;;;;;;;15.20;9.85;;;3.80;99.90;;;;;;5093088;28;20092;-75
2023/03/09 02:10:21;;;;;;;15.68;9.95;;;3.80;99.90;;;;;;5093688;28;20024;-75
2023/03/09 02:12:54;;;;;;;13.10;9.20;;;3.80;99.90;;;;;;5094197;28;20032;-76
2023/03/09 02:15:21;;;;;;;12.20;7.35;;;3.90;99.90;;;;;;5094084;28;20419;-75
2023/03/09 02:17:47;;;;;;;15.38;9.32;;;3.90;99.90;;;;;;5093997;28;20030;-75
2023/03/09 02:20:27;;;;;;;17.38;9.55;;;4.00;99.90;;;;;;5093370;28;20274;-75
2023/03/09 02:22:53;;;;;;;16.30;9.70;;;4.00;99.90;;;;;;5093700;28;20118;-77
2023/03/09 02:25:30;;;;;;;15.63;9.68;;;4.00;99.90;;;;;;5093992;28;20139;-75
2023/03/09 02:28:15;;;;;;;12.85;8.75;;;4.00;99.90;;;;;;5093255;28;20024;-75
2023/03/09 02:30:44;;;;;;;11.30;8.05;;;4.00;99.90;;;;;;5094117;28;20056;-74
2023/03/09 02:33:20;;;;;;;10.38;7.78;;;4.00;99.90;;;;;;5093275;28;20050;-74
2023/03/09 02:35:45;;;;;;;14.30;8.60;;;4.00;99.90;;;;;;5093698;28;20020;-74
2023/03/09 02:38:16;;;;;;;10.85;7.70;;;4.00;99.90;;;;;;5093348;28;20478;-75
2023/03/09 02:40:42;;;;;;;13.57;7.90;;;4.00;99.90;;;;;;5093571;28;20027;-74
2023/03/09 02:43:08;;;;;;;10.48;7.15;;;4.00;99.90;;;;;;5091788;28;20024;-75
2023/03/09 02:45:33;;;;;;;8.82;7.32;;;4.00;99.90;;;;;;5093745;28;20085;-75
2023/03/09 02:47:59;;;;;;;11.40;7.45;;;4.00;99.90;;;;;;5091425;28;20027;-75
2023/03/09 02:50:26;;;;;;;10.02;7.15;;;4.00;99.90;;;;;;5093420;28;20051;-75
2023/03/09 02:52:52;;;;;;;10.52;7.50;;;4.00;99.90;;;;;;5093726;28;20066;-75
2023/03/09 02:55:18;;;;;;;8.98;6.40;;;4.10;99.90;;;;;;5092577;28;20095;-75
2023/03/09 02:57:43;;;;;;;11.98;7.22;;;4.10;99.90;;;;;;5092939;28;20024;-75
2023/03/09 03:00:12;;;;;;;9.27;7.13;;;4.10;99.90;;;;;;5093071;28;20106;-76
2023/03/09 03:02:38;;;;;;;10.88;7.18;;;4.10;99.90;;;;;;5093075;28;20031;-76
2023/03/09 03:05:06;;;;;;;12.63;7.38;;;4.10;99.90;;;;;;5092631;28;20034;-76
2023/03/09 03:07:31;;;;;;;12.55;7.75;;;4.10;99.90;;;;;;5093440;28;20111;-75
2023/03/09 03:09:57;;;;;;;13.48;8.40;;;4.10;99.90;;;;;;5092198;28;20103;-77
2023/03/09 03:12:23;;;;;;;14.75;8.73;;;4.10;99.90;;;;;;5092837;28;20119;-75
2023/03/09 03:14:48;;;;;;;15.98;8.25;;;4.10;99.90;;;;;;5091806;28;20138;-75
2023/03/09 03:17:14;;;;;;;11.80;8.38;;;4.10;99.90;;;;;;5092180;28;20024;-75
2023/03/09 03:19:40;;;;;;;11.60;7.63;;;4.10;99.90;;;;;;5093280;28;20034;-75
2023/03/09 03:22:06;;;;;;;12.10;7.07;;;4.10;99.90;;;;;;5092109;28;20492;-75
2023/03/09 03:24:37;;;;;;;11.80;7.82;;;4.00;99.90;;;;;;5093104;28;20466;-75
2023/03/09 03:27:05;;;;;;;12.45;6.75;;;4.00;99.90;;;;;;5092434;28;20048;-77
2023/03/09 03:29:31;;;;;;;9.95;7.20;;;4.00;99.90;;;;;;5093066;28;20177;-76
2023/03/09 03:31:57;;;;;;;12.43;7.90;;;4.00;99.90;;;;;;5091100;28;20130;-79
2023/03/09 03:34:23;;;;;;;12.15;8.07;;;4.00;99.90;;;;;;5092210;28;20187;-76
2023/03/09 03:36:49;;;;;;;9.30;7.50;;;4.00;99.90;;;;;;5092725;28;20032;-75
2023/03/09 03:39:14;;;;;;;10.93;6.75;;;4.00;99.90;;;;;;5091859;28;20025;-73
2023/03/09 03:41:40;;;;;;;10.60;8.05;;;4.00;99.90;;;;;;5092295;28;20373;-74
2023/03/09 03:44:06;;;;;;;13.60;7.72;;;3.90;99.90;;;;;;5092316;28;20039;-75
2023/03/09 03:46:31;;;;;;;11.15;7.78;;;3.90;99.90;;;;;;5092007;28;20024;-75
2023/03/09 03:48:57;;;;;;;13.02;8.40;;;3.90;99.90;;;;;;5091979;28;20024;-77
2023/03/09 03:51:23;;;;;;;11.82;8.30;;;3.90;99.90;;;;;;5091918;28;20412;-76
2023/03/09 03:53:49;;;;;;;13.95;8.95;;;3.90;99.90;;;;;;5092133;28;20477;-74
2023/03/09 03:56:15;;;;;;;15.35;9.20;;;3.90;99.90;;;;;;5091480;28;20332;-76
2023/03/09 03:58:41;;;;;;;11.88;8.63;;;3.90;99.90;;;;;;5090629;28;20124;-76
2023/03/09 04:01:08;;;;;;;9.32;6.88;;;3.90;99.90;;;;;;5091727;28;20085;-75
2023/03/09 04:03:34;;;;;;;16.27;8.90;;;3.90;99.90;;;;;;5092183;28;20024;-75
2023/03/09 04:06:00;;;;;;;13.20;8.70;;;3.90;99.90;;;;;;5091736;28;20108;-76
2023/03/09 04:08:26;;;;;;;10.45;8.45;;;3.80;99.90;;;;;;5091961;28;20016;-74
2023/03/09 04:10:52;;;;;;;14.15;9.18;;;3.80;99.90;;;;;;5091757;28;20030;-75
2023/03/09 04:13:17;;;;;;;15.57;9.50;;;3.80;99.90;;;;;;5091378;28;20120;-75
2023/03/09 04:15:43;;;;;;;15.15;10.13;;;3.80;99.90;;;;;;5091774;28;20024;-76
2023/03/09 04:18:09;;;;;;;17.25;9.88;;;3.80;99.90;;;;;;5090946;28;20032;-76
2023/03/09 04:20:37;;;;;;;13.25;9.32;;;3.70;99.90;;;;;;5090284;28;20024;-77
2023/03/09 04:23:03;;;;;;;16.70;9.13;;;3.70;99.90;;;;;;5090812;28;20027;-77
2023/03/09 04:25:28;;;;;;;17.33;10.65;;;3.70;99.90;;;;;;5091488;28;20044;-76
2023/03/09 04:27:55;;;;;;;13.52;9.48;;;3.70;99.90;;;;;;5091566;28;20032;-77
2023/03/09 04:30:21;;;;;;;16.38;7.60;;;3.70;99.90;;;;;;5090939;28;20028;-76
2023/03/09 04:32:48;;;;;;;11.55;9.18;;;3.60;99.90;;;;;;5091219;28;20024;-77
2023/03/09 04:35:14;;;;;;;15.30;8.82;;;3.60;99.90;;;;;;5090860;28;20032;-77
2023/03/09 04:37:40;;;;;;;18.10;9.77;;;3.50;99.90;;;;;;5091380;28;20031;-76
2023/03/09 04:40:07;;;;;;;14.43;9.75;;;3.60;99.90;;;;;;5091114;28;20021;-77
2023/03/09 04:42:33;;;;;;;15.38;9.48;;;3.60;99.90;;;;;;5091222;28;20032;-78
2023/03/09 04:44:58;;;;;;;15.13;10.27;;;3.50;99.90;;;;;;5091473;28;20054;-77
2023/03/09 04:47:24;;;;;;;14.10;10.13;;;3.50;99.90;;;;;;5090833;28;20094;-77
2023/03/09 04:49:50;;;;;;;16.05;10.27;;;3.50;99.90;;;;;;5091489;28;20119;-77
2023/03/09 04:52:15;;;;;;;15.90;10.68;;;3.50;99.90;;;;;;5092355;28;20370;-77
2023/03/09 04:54:41;;;;;;;16.63;10.45;;;3.50;99.90;;;;;;5094372;28;20165;-77
2023/03/09 04:57:07;;;;;;;18.60;10.18;;;3.50;99.90;;;;;;5091551;28;20103;-77
2023/03/09 04:59:33;;;;;;;17.05;11.35;;;3.50;99.90;;;;;;5091600;28;20016;-77
2023/03/09 05:01:59;;;;;;;16.98;11.68;;;3.50;99.90;;;;;;5091750;28;20083;-76
2023/03/09 05:04:25;;;;;;;18.08;11.77;;;3.50;99.90;;;;;;5090999;28;20168;-77
2023/03/09 05:06:50;;;;;;;17.17;11.13;;;3.50;99.90;;;;;;5091554;28;20099;-76
2023/03/09 05:09:17;;;;;;;13.63;9.52;;;3.40;99.90;;;;;;5088851;28;20501;-77
2023/03/09 05:11:43;;;;;;;17.20;11.60;;;3.40;99.90;;;;;;5090725;28;20036;-77
2023/03/09 05:14:09;;;;;;;16.75;11.43;;;3.30;99.90;;;;;;5090540;28;20060;-77
2023/03/09 05:16:34;;;;;;;15.98;10.63;;;3.30;99.90;;;;;;5091067;28;20020;-76
2023/03/09 05:19:00;;;;;;;18.95;11.63;;;3.30;99.90;;;;;;5090652;28;20086;-76
2023/03/09 05:21:26;;;;;;;18.08;12.15;;;3.30;99.90;;;;;;5090095;28;20470;-77
2023/03/09 05:23:52;;;;;;;19.42;11.30;;;3.30;99.90;;;;;;5090559;28;20028;-77
2023/03/09 05:26:18;;;;;;;17.27;10.88;;;3.30;99.90;;;;;;5090064;28;20449;-77
2023/03/09 05:28:44;;;;;;;20.23;13.02;;;3.30;99.90;;;;;;5090579;28;20032;-77
2023/03/09 05:31:13;;;;;;;18.13;12.85;;;3.30;99.90;;;;;;5090290;28;20035;-78
2023/03/09 05:33:39;;;;;;;19.25;13.35;;;3.30;99.90;;;;;;5090834;28;20039;-76
2023/03/09 05:36:31;;;;;;;21.70;14.00;;;3.30;99.90;;;;;;5072506;28;20036;-80
2023/03/09 05:38:57;;;;;;;23.65;14.23;;;3.40;99.90;;;;;;5088995;28;20040;-76
2023/03/09 05:41:22;;;;;;;22.42;13.70;;;3.40;99.90;;;;;;5090043;28;20383;-77
2023/03/09 05:43:49;;;;;;;23.85;13.75;;;3.40;99.90;;;;;;5090568;28;20089;-77
2023/03/09 05:46:16;;;;;;;17.38;11.25;;;3.40;99.90;;;;;;5089930;28;20028;-77
2023/03/09 05:48:45;;;;;;;22.42;13.82;;;3.30;99.90;;;;;;5090988;28;20097;-76
2023/03/09 05:51:11;;;;;;;20.90;12.90;;;3.30;99.90;;;;;;5090499;28;20027;-77
2023/03/09 05:53:37;;;;;;;22.52;13.02;;;3.20;99.90;;;;;;5090741;28;20356;-78
2023/03/09 05:56:05;;;;;;;18.20;11.82;;;3.10;99.90;;;;;;5090666;28;20032;-78
2023/03/09 05:58:31;;;;;;;18.35;11.48;;;3.10;99.90;;;;;;5090326;28;20024;-76
2023/03/09 06:00:56;;;;;;;14.82;9.10;;;3.00;99.90;;;;;;5090830;28;20031;-79
2023/03/09 06:03:23;;;;;;;20.70;12.05;;;2.90;99.90;;;;;;5088689;28;20077;-79
2023/03/09 06:05:58;;;;;;;17.33;11.30;;;2.90;99.90;;;;;;5090602;28;20039;-77
2023/03/09 06:08:24;;;;;;;19.30;11.63;;;2.90;99.90;;;;;;5089961;28;20032;-78
2023/03/09 06:10:50;;;;;;;17.48;9.27;;;2.90;99.90;;;;;;5090527;28;20095;-78
2023/03/09 06:13:15;;;;;;;23.30;13.02;;;2.90;99.90;;;;;;5089883;28;20067;-78
2023/03/09 06:15:42;;;;;;;20.05;11.88;;;2.90;99.90;;;;;;5090772;28;20486;-77
2023/03/09 06:18:08;;;;;;;19.33;12.00;;;2.90;99.90;;;;;;5090340;28;20435;-82
2023/03/09 06:20:34;;;;;;;18.30;10.77;;;2.80;99.90;;;;;;5088945;28;20053;-78
2023/03/09 06:22:59;;;;;;;16.67;10.80;;;2.80;99.90;;;;;;5090521;28;20495;-78
2023/03/09 06:25:25;;;;;;;20.48;12.25;;;2.80;99.90;;;;;;5089678;28;20429;-79
2023/03/09 06:27:51;;;;;;;21.52;11.00;;;2.80;99.90;;;;;;5090738;28;20344;-78
2023/03/09 06:30:17;;;;;;;16.33;11.20;;;2.80;99.90;;;;;;5089937;28;20444;-78
2023/03/09 06:32:42;;;;;;;21.98;11.77;;;2.90;99.90;;;;;;5090145;28;20032;-77
2023/03/09 06:35:08;;;;;;;23.75;14.13;;;2.90;99.90;;;;;;5090386;28;20028;-79
2023/03/09 06:37:34;;;;;;;23.17;12.35;;;2.90;99.90;;;;;;5090403;28;20463;-78
2023/03/09 06:39:59;;;;;;;22.65;13.50;;;2.90;99.90;;;;;;5090411;28;20031;-77
2023/03/09 06:42:25;;;;;;;20.88;13.10;;;2.90;99.90;;;;;;5089432;28;20024;-77
2023/03/09 06:44:51;;;;;;;20.25;12.90;;;3.00;99.90;;;;;;5090065;28;20024;-79
2023/03/09 06:47:17;;;;;;;18.30;12.43;;;3.00;99.90;;;;;;5089667;28;20031;-78
2023/03/09 06:49:43;;;;;;;18.33;12.35;;;3.00;99.90;;;;;;5089376;28;20435;-78
2023/03/09 06:52:09;;;;;;;23.08;13.57;;;3.00;99.90;;;;;;5093486;28;20383;-77
2023/03/09 06:54:35;;;;;;;24.10;12.57;;;3.00;99.90;;;;;;5093419;28;20024;-77
2023/03/09 06:57:01;;;;;;;19.85;12.60;;;3.00;99.90;;;;;;5092980;28;20489;-78
2023/03/09 06:59:29;;;;;;;28.08;13.70;;;3.00;99.90;;;;;;5093070;28;20024;-78
2023/03/09 07:01:55;;;;;;;17.25;10.63;;;3.00;99.90;;;;;;5093569;28;20368;-78
2023/03/09 07:04:21;;;;;;;16.35;9.25;;;3.00;99.90;;;;;;5093216;28;20027;-78
2023/03/09 07:06:47;;;;;;;18.58;10.93;;;2.90;99.90;;;;;;5093522;28;20052;-78
2023/03/09 07:09:13;;;;;;;17.17;10.48;;;2.90;99.90;;;;;;5092961;28;20470;-81
2023/03/09 07:11:39;;;;;;;16.50;10.65;;;3.00;99.90;;;;;;5093416;28;20040;-77
2023/03/09 07:14:04;;;;;;;16.17;10.38;;;2.90;99.90;;;;;;5092983;28;20032;-77
2023/03/09 07:16:30;;;;;;;16.00;10.43;;;2.90;99.90;;;;;;5092589;28;20442;-78
2023/03/09 07:18:56;;;;;;;16.77;9.65;;;2.90;99.90;;;;;;5093255;28;20478;-77
2023/03/09 07:21:22;;;;;;;13.52;8.23;;;2.90;99.90;;;;;;5092970;28;20103;-77
2023/03/09 07:23:48;;;;;;;13.23;9.23;;;2.90;99.90;;;;;;5091931;28;20116;-78
2023/03/09 07:26:13;;;;;;;15.30;9.82;;;2.90;99.90;;;;;;5092199;28;20048;-79
2023/03/09 07:28:39;;;;;;;10.45;6.68;;;3.00;99.90;;;;;;5092714;28;20024;-77
2023/03/09 07:31:10;;;;;;;13.27;8.60;;;2.90;99.90;;;;;;5091610;28;20028;-76
2023/03/09 07:33:36;;;;;;;11.10;8.38;;;2.90;99.90;;;;;;5092346;28;20028;-76
2023/03/09 07:36:06;;;;;;;12.07;8.30;;;2.90;99.90;;;;;;5093059;28;20150;-77
2023/03/09 07:38:32;;;;;;;15.90;9.30;;;3.00;99.90;;;;;;5092009;28;20099;-77
2023/03/09 07:40:59;;;;;;;13.57;8.80;;;3.00;99.90;;;;;;5091391;28;20383;-78
2023/03/09 07:43:25;;;;;;;11.70;7.80;;;3.10;99.90;;;;;;5092305;28;20049;-78
2023/03/09 07:45:51;;;;;;;11.05;7.60;;;3.00;99.90;;;;;;5092373;28;20024;-77
2023/03/09 07:48:16;;;;;;;11.93;7.65;;;3.00;99.90;;;;;;5092121;28;20028;-79
2023/03/09 07:50:43;;;;;;;11.93;7.10;;;3.00;99.90;;;;;;5090793;28;20028;-77
2023/03/09 07:53:09;;;;;;;12.38;7.40;;;3.10;99.90;;;;;;5092202;28;20028;-78
2023/03/09 07:55:36;;;;;;;14.57;7.68;;;3.10;99.90;;;;;;5090320;28;20035;-78
2023/03/09 07:58:02;;;;;;;10.23;7.45;;;3.10;99.90;;;;;;5092205;28;20051;-80
2023/03/09 08:00:29;;;;;;;8.93;6.32;;;3.10;99.90;;;;;;5091469;28;20487;-78
2023/03/09 08:02:56;;;;;;;9.85;6.70;;;3.20;99.90;;;;;;5091882;28;20028;-78
2023/03/09 08:05:22;;;;;;;7.93;6.28;;;3.10;99.90;;;;;;5091568;28;20016;-78
2023/03/09 08:07:49;;;;;;;8.70;6.20;;;3.10;99.90;;;;;;5091972;28;20020;-77
2023/03/09 08:10:18;;;;;;;13.25;6.10;;;3.20;99.90;;;;;;5093896;28;20059;-82
2023/03/09 08:12:48;;;;;;;8.30;6.65;;;3.10;99.90;;;;;;5090637;28;20031;-77
2023/03/09 08:15:14;;;;;;;10.90;7.03;;;3.20;99.90;;;;;;5092019;28;20121;-77
2023/03/09 08:17:40;;;;;;;10.77;6.65;;;3.20;99.90;;;;;;5091820;28;20028;-76
2023/03/09 08:20:08;;;;;;;10.63;6.65;;;3.10;99.90;;;;;;5091925;28;20150;-77
2023/03/09 08:22:36;;;;;;;9.48;5.30;;;3.20;99.90;;;;;;5091765;28;20056;-77
2023/03/09 08:25:03;;;;;;;10.27;6.57;;;3.10;99.90;;;;;;5091863;28;20059;-78
2023/03/09 08:27:29;;;;;;;12.98;7.35;;;3.10;99.90;;;;;;5091673;28;20032;-78
2023/03/09 08:29:54;;;;;;;15.88;8.38;;;3.20;99.90;;;;;;5092183;28;20024;-78
2023/03/09 08:32:22;;;;;;;12.27;7.30;;;3.20;99.90;;;;;;5091000;28;20126;-78
2023/03/09 08:34:48;;;;;;;10.35;6.47;;;3.20;99.90;;;;;;5091551;28;20021;-76
2023/03/09 08:37:14;;;;;;;10.60;7.85;;;3.10;99.90;;;;;;5091617;28;20031;-78
2023/03/09 08:39:40;;;;;;;10.60;6.25;;;3.10;99.90;;;;;;5090741;28;20032;-76
2023/03/09 08:42:06;;;;;;;8.82;4.50;;;3.10;99.90;;;;;;5091144;28;20109;-79
2023/03/09 08:44:31;;;;;;;11.52;5.70;;;3.10;99.90;;;;;;5091169;28;20028;-78
2023/03/09 08:46:57;;;;;;;7.88;5.63;;;3.00;99.90;;;;;;5091666;28;20035;-78
2023/03/09 08:49:23;;;;;;;7.43;5.68;;;3.00;99.90;;;;;;5090747;28;20031;-79
2023/03/09 08:51:50;;;;;;;10.52;5.85;;;3.00;99.90;;;;;;5091203;28;20059;-78
2023/03/09 08:54:15;;;;;;;8.40;6.40;;;2.90;99.90;;;;;;5091225;28;20032;-79
2023/03/09 08:56:41;;;;;;;8.57;5.50;;;2.90;99.90;;;;;;5090610;28;20489;-80
2023/03/09 08:59:07;;;;;;;8.80;6.28;;;2.90;99.90;;;;;;5089376;28;20023;-78
2023/03/09 09:01:32;;;;;;;9.32;5.80;;;2.90;99.90;;;;;;5090677;28;20459;-78
2023/03/09 09:03:58;;;;;;;9.65;5.95;;;3.00;99.90;;;;;;5090734;28;20092;-76
2023/03/09 09:06:24;;;;;;;11.90;6.03;;;3.00;99.90;;;;;;5090527;28;20027;-78
2023/03/09 09:08:49;;;;;;;11.27;5.32;;;3.10;99.90;;;;;;5090968;28;20020;-77
2023/03/09 09:11:16;;;;;;;9.88;4.70;;;3.10;99.90;;;;;;5090546;28;20024;-77
2023/03/09 09:13:52;;;;;;;9.32;4.90;;;3.10;99.90;;;;;;5089240;28;20115;-77
2023/03/09 09:16:17;;;;;;;9.20;4.72;;;3.10;99.90;;;;;;5091238;28;20461;-78
2023/03/09 09:18:43;;;;;;;7.93;4.35;;;3.10;99.90;;;;;;5090079;28;20028;-77
2023/03/09 09:21:14;;;;;;;6.10;4.65;;;3.10;99.90;;;;;;5090902;28;20028;-77
2023/03/09 09:23:42;;;;;;;8.55;5.35;;;3.10;99.90;;;;;;5090645;28;20040;-77
2023/03/09 09:26:08;;;;;;;5.18;4.20;;;3.20;99.90;;;;;;5093033;28;20101;-77
2023/03/09 09:28:34;;;;;;;9.38;5.05;;;3.20;99.90;;;;;;5090921;28;20028;-77
2023/03/09 09:31:03;;;;;;;7.13;4.45;;;3.20;99.90;;;;;;5092532;28;20032;-77
2023/03/09 09:33:30;;;;;;;10.45;4.95;;;3.20;99.90;;;;;;5092194;28;20032;-78
2023/03/09 09:36:00;;;;;;;6.95;4.32;;;3.20;99.90;;;;;;5091659;28;20061;-78
2023/03/09 09:38:28;;;;;;;7.00;3.92;;;3.20;99.90;;;;;;5091784;28;20324;-78
2023/03/09 09:40:55;;;;;;;8.65;3.92;;;3.30;99.90;;;;;;5093312;28;20086;-77
2023/03/09 09:43:23;;;;;;;5.70;3.92;;;3.20;99.90;;;;;;5092429;28;20036;-77
2023/03/09 09:45:54;;;;;;;5.72;3.83;;;3.30;99.90;;;;;;5092260;28;20346;-76
2023/03/09 09:48:22;;;;;;;7.10;3.95;;;3.40;99.90;;;;;;5092805;28;20374;-77
2023/03/09 09:51:25;;;;;;;6.57;3.63;;;3.40;99.90;;;;;;5091949;28;20071;-77
2023/03/09 09:54:09;;;;;;;5.78;3.58;;;3.40;99.90;;;;;;5091206;28;20115;-77
2023/03/09 09:57:08;;;;;;;3.30;2.53;;;3.40;99.90;;;;;;5090730;28;20024;-77
2023/03/09 09:59:41;;;;;;;8.52;3.42;;;3.20;99.90;;;;;;5091098;28;20034;-76
2023/03/09 10:02:28;;;;;;;4.47;2.70;;;3.30;99.90;;;;;;5091492;28;20036;-76
2023/03/09 10:05:18;;;;;;;8.23;2.55;;;3.40;99.90;;;;;;5091187;28;20032;-77
2023/03/09 10:07:43;;;;;;;5.20;2.38;;;3.30;99.90;;;;;;5079673;28;20055;-77
2023/03/09 10:10:21;;;;;;;4.38;2.58;;;3.40;99.90;;;;;;5091188;28;20024;-77
2023/03/09 10:12:47;;;;;;;3.42;2.78;;;3.40;99.90;;;;;;5090420;28;20028;-76
2023/03/09 10:15:20;;;;;;;9.55;3.20;;;3.40;99.90;;;;;;5091257;28;20042;-76
2023/03/09 10:17:55;;;;;;;5.53;2.50;;;3.40;99.90;;;;;;5090659;28;20032;-77
2023/03/09 10:20:35;;;;;;;3.60;1.90;;;3.50;99.90;;;;;;5090025;28;20114;-77
2023/03/09 10:23:30;;;;;;;3.83;2.38;;;3.40;99.90;;;;;;5090964;28;20029;-77
2023/03/09 10:26:26;;;;;;;2.45;1.90;;;3.50;99.90;;;;;;5093816;28;20044;-77
2023/03/09 10:28:56;;;;;;;5.57;2.00;;;3.50;99.90;;;;;;5094184;28;20026;-77
2023/03/09 10:31:31;;;;;;;2.67;1.42;;;3.60;99.90;;;;;;5094076;28;20046;-76
2023/03/09 10:34:17;;;;;;;18.13;1.83;;;3.60;99.90;;;;;;5093678;28;20409;-77
2023/03/09 10:37:01;;;;;;;5.00;1.92;;;3.50;99.90;;;;;;5093084;28;20046;-77
2023/03/09 10:39:41;;;;;;;2.50;1.60;;;3.60;99.90;;;;;;5093445;28;20020;-80
2023/03/09 10:42:24;;;;;;;5.07;2.03;;;3.60;99.90;;;;;;5093631;28;20032;-75
2023/03/09 10:45:20;;;;;;;3.95;1.90;;;3.60;99.90;;;;;;5093120;28;20035;-76
2023/03/09 10:48:05;;;;;;;2.28;1.90;;;3.60;99.90;;;;;;5093344;28;20028;-75
2023/03/09 10:50:54;;;;;;;4.05;1.67;;;3.70;99.90;;;;;;5091898;28;20024;-77
2023/03/09 10:53:32;;;;;;;2.63;2.05;;;3.70;99.90;;;;;;5093722;28;20144;-76
2023/03/09 10:56:21;;;;;;;9.25;2.10;;;3.60;99.90;;;;;;5093601;28;20028;-77
2023/03/09 10:59:09;;;;;;;6.93;2.03;;;3.60;99.90;;;;;;5095626;28;20169;-77
2023/03/09 11:01:41;;;;;;;4.38;2.15;;;3.60;99.90;;;;;;5092792;28;20020;-78
2023/03/09 11:04:36;;;;;;;3.95;1.95;;;3.60;99.90;;;;;;5093664;28;20481;-77
2023/03/09 11:07:17;;;;;;;5.93;2.13;;;3.50;99.90;;;;;;5093480;28;20128;-78
2023/03/09 11:09:42;;;;;;;3.25;2.03;;;3.60;99.90;;;;;;5092806;28;20020;-78
2023/03/09 11:12:17;;;;;;;4.68;2.10;;;3.60;99.90;;;;;;5093511;28;20028;-76
2023/03/09 11:15:27;;;;;;;8.05;2.10;;;3.60;99.90;;;;;;5092735;28;20093;-76
2023/03/09 11:17:54;;;;;;;6.82;2.63;;;3.70;99.90;;;;;;5090288;28;20039;-77
2023/03/09 11:20:38;;;;;;;4.13;1.95;;;3.60;99.90;;;;;;5093241;28;20024;-78
2023/03/09 11:23:10;;;;;;;5.68;2.22;;;3.50;99.90;;;;;;5093405;28;20267;-77
2023/03/09 11:25:48;;;;;;;4.47;2.33;;;3.60;99.90;;;;;;5092857;28;20399;-77
2023/03/09 11:28:38;;;;;;;2.88;1.35;;;3.60;99.90;;;;;;5093259;28;20751;-76
2023/03/09 11:31:15;;;;;;;6.68;1.88;;;3.50;99.90;;;;;;5093022;28;20024;-77
2023/03/09 11:33:43;;;;;;;6.28;2.38;;;3.50;99.90;;;;;;5092551;28;20474;-78
2023/03/09 11:36:24;;;;;;;3.15;1.85;;;3.50;99.90;;;;;;5092227;28;20039;-76
2023/03/09 11:38:50;;;;;;;2.92;1.63;;;3.60;99.90;;;;;;5092012;28;20020;-76
2023/03/09 11:41:29;;;;;;;5.82;2.05;;;3.60;99.90;;;;;;5091688;28;20028;-76
2023/03/09 11:44:05;;;;;;;2.75;1.85;;;3.60;99.90;;;;;;5092778;28;20028;-77
2023/03/09 11:46:32;;;;;;;6.20;1.88;;;3.70;99.90;;;;;;5092073;28;20016;-80
2023/03/09 11:49:14;;;;;;;9.38;2.40;;;3.70;99.90;;;;;;5092164;28;20028;-76
2023/03/09 11:51:48;;;;;;;6.00;1.50;;;3.80;99.90;;;;;;5091661;28;20035;-76
2023/03/09 11:54:27;;;;;;;6.88;1.30;;;3.70;99.90;;;;;;5091628;28;20046;-75
2023/03/09 11:56:54;;;;;;;6.70;2.10;;;3.70;99.90;;;;;;5091395;28;20031;-75
2023/03/09 11:59:38;;;;;;;6.50;1.55;;;3.80;99.90;;;;;;5091607;28;20032;-75
2023/03/09 12:02:25;;;;;;;4.68;1.65;;;3.70;99.90;;;;;;5091994;28;20102;-75
2023/03/09 12:04:53;;;;;;;6.35;1.75;;;3.60;99.90;;;;;;5090910;28;20016;-74
2023/03/09 12:07:41;;;;;;;7.80;2.17;;;3.70;99.90;;;;;;5091369;28;20039;-74
2023/03/09 12:10:16;;;;;;;9.52;3.00;;;3.70;99.90;;;;;;5090908;28;20077;-74
2023/03/09 12:13:00;;;;;;;6.38;2.28;;;3.70;99.90;;;;;;5090815;28;20540;-75
2023/03/09 12:15:59;;;;;;;7.35;2.58;;;3.70;99.90;;;;;;5091668;28;20028;-75
2023/03/09 12:18:29;;;;;;;7.13;2.97;;;3.70;99.90;;;;;;5091194;28;20027;-75
2023/03/09 12:21:01;;;;;;;35.20;6.28;;;3.80;99.90;;;;;;5090891;28;20023;-75
2023/03/09 12:23:35;;;;;;;11.80;3.07;;;3.70;99.90;;;;;;5090802;28;20040;-76
2023/03/09 12:26:32;;;;;;;8.40;3.28;;;3.80;99.90;;;;;;5091738;28;20109;-75
2023/03/09 12:29:12;;;;;;;11.40;4.18;;;3.80;99.90;;;;;;5091909;28;20028;-76
2023/03/09 12:31:39;;;;;;;6.63;2.33;;;3.90;99.90;;;;;;5091199;28;20024;-76
2023/03/09 12:34:23;;;;;;;8.32;2.67;;;3.90;99.90;;;;;;5092133;28;20072;-76
2023/03/09 12:36:49;;;;;;;7.60;3.00;;;3.90;99.90;;;;;;5091091;28;20025;-76
2023/03/09 12:39:28;;;;;;;9.65;2.47;;;3.90;99.90;;;;;;5091309;28;20077;-76
2023/03/09 12:42:37;;;;;;;5.85;2.65;;;4.00;99.90;;;;;;5090970;28;20054;-76
2023/03/09 12:45:12;;;;;;;3.35;1.80;;;4.00;99.90;;;;;;5091162;28;20024;-77
2023/03/09 12:47:48;;;;;;;5.57;2.40;;;3.90;99.90;;;;;;5089386;28;20376;-76
2023/03/09 12:50:22;;;;;;;7.22;2.50;;;4.00;99.90;;;;;;5090142;28;20032;-76
2023/03/09 12:53:17;;;;;;;8.27;2.83;;;3.90;99.90;;;;;;5090618;28;20035;-76
2023/03/09 12:55:52;;;;;;;6.22;3.25;;;4.00;99.90;;;;;;5090603;28;20470;-76
2023/03/09 12:58:21;;;;;;;8.98;3.70;;;4.00;99.90;;;;;;5091180;28;20024;-75
2023/03/09 13:01:02;;;;;;;7.50;3.17;;;3.90;99.90;;;;;;5090673;28;20085;-75